Time;durP1;ratioP1;P1;durP2;ratioP2;P2;SDS_P1;SDS_P2;PMS_P1;PMS_P2;Temp;Humidity;BMP_temperature;BMP_pressure;BME280_temperature;BME280_humidity;BME280_pressure;Samples;Min_cycle;Max_cycle;Signal;HPM_P1;HPM_P2
2022/07/02 00:01:50;;;;;;;15.07;7.75;;;25.60;99.20;;;;;;4787867;30;20400;-86
2022/07/02 00:05:06;;;;;;;17.08;8.55;;;25.60;99.90;;;;;;4780025;30;20055;-84
2022/07/02 00:07:34;;;;;;;14.60;7.85;;;25.60;99.90;;;;;;4787882;29;20054;-83
2022/07/02 00:10:02;;;;;;;12.35;7.60;;;25.50;99.90;;;;;;4787228;29;20622;-82
2022/07/02 00:12:32;;;;;;;15.75;7.20;;;25.30;99.90;;;;;;4787939;29;20066;-83
2022/07/02 00:15:00;;;;;;;13.63;7.22;;;25.30;99.90;;;;;;4800810;29;20108;-82
2022/07/02 00:17:28;;;;;;;14.73;7.65;;;25.40;99.90;;;;;;4787368;29;20078;-81
2022/07/02 00:19:56;;;;;;;15.68;7.45;;;25.40;99.90;;;;;;4787213;29;20085;-80
2022/07/02 00:22:23;;;;;;;15.70;7.13;;;25.40;99.30;;;;;;4787505;30;20501;-82
2022/07/02 00:24:51;;;;;;;16.58;8.45;;;25.60;99.90;;;;;;4787223;29;20449;-84
2022/07/02 00:27:19;;;;;;;15.43;8.18;;;25.50;99.80;;;;;;4787303;30;20043;-83
2022/07/02 00:30:01;;;;;;;17.75;7.63;;;25.40;99.90;;;;;;4786069;30;20521;-83
2022/07/02 00:32:34;;;;;;;19.60;8.10;;;25.40;99.80;;;;;;4786431;30;20081;-81
2022/07/02 00:35:22;;;;;;;15.70;8.18;;;25.40;99.70;;;;;;4786894;29;20047;-80
2022/07/02 00:37:52;;;;;;;13.98;7.97;;;25.60;99.90;;;;;;4785975;29;20051;-81
2022/07/02 00:40:22;;;;;;;13.38;7.88;;;25.50;99.30;;;;;;4770959;30;20390;-77
2022/07/02 00:42:50;;;;;;;20.83;7.78;;;25.40;99.80;;;;;;4785394;29;20418;-81
2022/07/02 00:45:18;;;;;;;14.20;8.88;;;25.30;99.90;;;;;;4768496;30;20048;-81
2022/07/02 00:47:47;;;;;;;17.52;7.90;;;25.30;99.90;;;;;;4768885;30;20044;-83
2022/07/02 00:50:15;;;;;;;11.03;7.60;;;25.20;99.90;;;;;;4767434;30;20061;-85
2022/07/02 00:52:42;;;;;;;16.38;7.32;;;25.10;99.90;;;;;;4769123;30;20140;-85
2022/07/02 00:55:10;;;;;;;12.30;7.32;;;25.10;99.90;;;;;;4768496;30;20455;-79
2022/07/02 00:57:37;;;;;;;17.63;7.97;;;25.00;99.90;;;;;;4769641;30;20055;-77
2022/07/02 01:00:07;;;;;;;14.80;8.07;;;25.10;99.90;;;;;;4769770;30;20058;-78
2022/07/02 01:02:36;;;;;;;12.87;7.83;;;25.10;99.90;;;;;;4768831;30;20051;-78
2022/07/02 01:05:05;;;;;;;13.52;7.50;;;25.10;99.90;;;;;;4767598;30;20062;-79
2022/07/02 01:07:33;;;;;;;12.77;7.20;;;25.00;99.90;;;;;;4769244;30;20050;-78
2022/07/02 01:10:17;;;;;;;16.73;7.07;;;25.00;99.90;;;;;;4768817;30;20051;-79
2022/07/02 01:12:47;;;;;;;19.00;8.15;;;24.90;99.90;;;;;;4768989;30;20054;-78
2022/07/02 01:15:15;;;;;;;17.60;8.55;;;24.90;99.90;;;;;;4768732;30;20054;-78
2022/07/02 01:17:43;;;;;;;15.52;7.82;;;24.90;99.90;;;;;;4768914;30;20412;-79
2022/07/02 01:20:11;;;;;;;13.93;7.57;;;24.80;99.90;;;;;;4782153;30;20408;-80
2022/07/02 01:22:44;;;;;;;12.15;7.40;;;24.70;99.90;;;;;;4769106;30;20052;-78
2022/07/02 01:25:11;;;;;;;15.48;8.00;;;24.70;99.90;;;;;;4768939;30;20088;-77
2022/07/02 01:27:39;;;;;;;15.30;8.07;;;24.50;99.90;;;;;;4770396;30;20055;-78
2022/07/02 01:30:07;;;;;;;15.25;7.63;;;24.60;99.90;;;;;;4772446;30;20063;-77
2022/07/02 01:32:35;;;;;;;12.93;8.15;;;24.50;99.90;;;;;;4772826;30;20039;-81
2022/07/02 01:35:08;;;;;;;15.30;8.20;;;24.50;99.90;;;;;;4756648;30;20108;-81
2022/07/02 01:37:39;;;;;;;15.80;8.02;;;24.50;99.90;;;;;;4756912;30;20052;-80
2022/07/02 01:40:10;;;;;;;13.25;7.18;;;24.70;99.90;;;;;;4772256;30;20055;-81
2022/07/02 01:42:37;;;;;;;;;;;24.80;99.90;;;;;;4758228;30;20071;-81
2022/07/02 01:45:05;;;;;;;12.90;7.95;;;24.80;99.90;;;;;;4788665;30;20260;-85
2022/07/02 01:47:33;;;;;;;13.40;7.68;;;24.70;99.90;;;;;;4790879;30;20105;-84
2022/07/02 01:50:00;;;;;;;11.57;7.43;;;24.60;99.90;;;;;;4774812;30;20066;-80
2022/07/02 01:52:28;;;;;;;11.73;7.60;;;24.60;99.90;;;;;;4775891;30;20043;-89
2022/07/02 01:54:56;;;;;;;13.00;7.80;;;24.70;99.90;;;;;;4775180;30;20075;-88
2022/07/02 01:57:23;;;;;;;15.80;7.75;;;24.80;99.90;;;;;;4791024;30;20043;-81
2022/07/02 01:59:51;;;;;;;15.35;7.90;;;24.80;99.90;;;;;;4775283;30;20050;-85
2022/07/02 02:02:18;;;;;;;17.13;7.72;;;24.80;99.90;;;;;;4790255;30;20067;-88
2022/07/02 02:04:46;;;;;;;17.33;10.77;;;24.70;99.90;;;;;;4791119;30;20047;-83
2022/07/02 02:07:13;;;;;;;12.52;7.80;;;24.50;99.90;;;;;;4791149;30;20389;-83
2022/07/02 02:09:50;;;;;;;11.75;8.60;;;24.30;99.90;;;;;;4774617;30;20051;-87
2022/07/02 02:12:18;;;;;;;15.20;7.68;;;24.40;99.90;;;;;;4789975;30;20043;-82
2022/07/02 02:14:45;;;;;;;12.40;7.68;;;24.40;99.90;;;;;;4789987;30;20412;-83
2022/07/02 02:17:13;;;;;;;13.85;7.90;;;24.30;99.90;;;;;;4789469;30;20051;-82
2022/07/02 02:19:40;;;;;;;14.93;7.70;;;24.40;99.90;;;;;;4789951;30;20053;-82
2022/07/02 02:22:08;;;;;;;10.95;7.75;;;24.40;99.90;;;;;;4786650;30;20063;-83
2022/07/02 02:24:35;;;;;;;14.40;8.00;;;24.40;99.90;;;;;;4789075;29;20067;-79
2022/07/02 02:27:04;;;;;;;11.93;7.63;;;24.30;99.90;;;;;;4803444;29;20071;-85
2022/07/02 02:29:31;;;;;;;15.25;8.20;;;24.30;99.90;;;;;;4789678;29;20047;-82
2022/07/02 02:31:58;;;;;;;13.55;8.20;;;24.40;99.90;;;;;;4789363;29;20047;-85
2022/07/02 02:34:26;;;;;;;10.55;7.70;;;24.40;99.90;;;;;;4789685;29;20055;-84
2022/07/02 02:36:54;;;;;;;12.25;8.00;;;24.30;99.90;;;;;;4789942;29;20054;-80
2022/07/02 02:39:21;;;;;;;21.73;8.68;;;24.30;99.90;;;;;;4789011;29;20044;-79
2022/07/02 02:41:51;;;;;;;18.58;8.00;;;24.30;99.90;;;;;;4789404;29;20096;-81
2022/07/02 02:44:18;;;;;;;12.57;7.88;;;24.30;99.90;;;;;;4789313;29;20047;-81
2022/07/02 02:46:46;;;;;;;14.93;7.95;;;24.30;99.90;;;;;;4788529;29;20059;-81
2022/07/02 02:49:13;;;;;;;16.10;8.00;;;24.20;99.90;;;;;;4787431;30;20082;-83
2022/07/02 02:51:41;;;;;;;14.27;8.32;;;24.20;99.90;;;;;;4772655;30;20419;-80
2022/07/02 02:54:08;;;;;;;15.00;8.10;;;24.10;99.90;;;;;;4787229;30;20050;-82
2022/07/02 02:56:36;;;;;;;13.38;8.13;;;24.10;99.90;;;;;;4788905;30;20054;-87
2022/07/02 02:59:03;;;;;;;11.30;8.38;;;24.00;99.90;;;;;;4804242;29;20055;-90
2022/07/02 03:01:31;;;;;;;12.18;7.80;;;23.90;99.90;;;;;;4802745;29;20059;-79
2022/07/02 03:03:58;;;;;;;13.00;8.02;;;24.10;99.90;;;;;;4787409;30;20046;-79
2022/07/02 03:06:26;;;;;;;12.60;8.02;;;23.90;99.90;;;;;;4788389;29;20071;-78
2022/07/02 03:08:53;;;;;;;18.05;8.23;;;23.80;99.90;;;;;;4788102;29;20044;-78
2022/07/02 03:11:21;;;;;;;14.13;8.90;;;24.00;99.90;;;;;;4787523;30;20073;-82
2022/07/02 03:13:48;;;;;;;19.75;8.70;;;24.00;99.90;;;;;;4788778;29;20062;-79
2022/07/02 03:16:16;;;;;;;14.20;8.20;;;23.90;99.90;;;;;;4802385;29;20055;-81
2022/07/02 03:18:43;;;;;;;13.98;8.10;;;23.90;99.90;;;;;;4788741;29;20043;-79
2022/07/02 03:21:10;;;;;;;13.88;7.97;;;24.00;99.90;;;;;;4788753;29;20071;-79
2022/07/02 03:23:38;;;;;;;14.85;9.13;;;23.80;99.90;;;;;;4788664;30;20063;-84
2022/07/02 03:26:06;;;;;;;15.38;7.60;;;23.80;99.90;;;;;;4788685;30;20492;-84
2022/07/02 03:28:33;;;;;;;13.32;8.13;;;23.90;99.90;;;;;;4788485;30;20050;-84
2022/07/02 03:31:01;;;;;;;13.85;8.00;;;24.00;99.90;;;;;;4788077;30;20055;-80
2022/07/02 03:33:28;;;;;;;14.77;8.77;;;24.00;99.90;;;;;;4788087;30;20428;-80
2022/07/02 03:35:56;;;;;;;14.32;8.20;;;24.10;99.90;;;;;;4787563;30;20039;-78
2022/07/02 03:38:23;;;;;;;14.02;7.15;;;24.10;99.90;;;;;;4787877;30;20054;-81
2022/07/02 03:40:51;;;;;;;13.52;7.85;;;24.20;99.90;;;;;;4787923;30;20426;-79
2022/07/02 03:43:18;;;;;;;11.95;8.23;;;24.10;99.90;;;;;;4787883;30;20039;-83
2022/07/02 03:45:46;;;;;;;19.15;8.45;;;24.10;99.90;;;;;;4770684;30;20764;-81
2022/07/02 03:48:13;;;;;;;17.17;8.40;;;24.10;99.90;;;;;;4754118;30;20160;-81
2022/07/02 03:50:42;;;;;;;11.25;8.38;;;24.00;99.90;;;;;;4752793;30;20051;-84
2022/07/02 03:53:10;;;;;;;15.50;8.00;;;24.10;99.90;;;;;;4769965;30;20075;-85
2022/07/02 03:55:37;;;;;;;13.85;8.40;;;24.10;99.90;;;;;;4769461;30;20051;-85
2022/07/02 03:58:05;;;;;;;15.32;7.65;;;24.10;99.90;;;;;;4770341;30;20119;-80
2022/07/02 04:00:32;;;;;;;16.40;7.88;;;24.10;99.90;;;;;;4769650;30;20101;-80
2022/07/02 04:03:00;;;;;;;9.85;7.55;;;24.10;99.90;;;;;;4769733;30;20044;-79
2022/07/02 04:05:28;;;;;;;11.10;7.57;;;24.20;99.90;;;;;;4770021;30;20044;-82
2022/07/02 04:07:55;;;;;;;15.57;7.95;;;24.10;99.90;;;;;;4753538;30;20519;-81
2022/07/02 04:10:23;;;;;;;15.80;8.38;;;24.10;99.90;;;;;;4753777;30;20044;-80
2022/07/02 04:12:50;;;;;;;14.40;7.40;;;24.00;99.90;;;;;;4769434;30;20055;-78
2022/07/02 04:15:18;;;;;;;13.40;8.00;;;23.90;99.90;;;;;;4768560;30;20044;-81
2022/07/02 04:17:45;;;;;;;12.13;8.07;;;23.90;99.90;;;;;;4769860;30;20048;-83
2022/07/02 04:20:13;;;;;;;11.02;7.68;;;24.00;99.90;;;;;;4771412;29;20051;-81
2022/07/02 04:22:40;;;;;;;13.57;7.65;;;24.00;99.90;;;;;;4756994;30;20063;-80
2022/07/02 04:25:08;;;;;;;11.20;7.72;;;24.00;99.90;;;;;;4787371;30;20051;-80
2022/07/02 04:27:36;;;;;;;15.30;8.07;;;24.00;99.90;;;;;;4787387;30;20051;-81
2022/07/02 04:30:04;;;;;;;11.27;8.73;;;24.10;99.90;;;;;;4771344;30;20043;-81
2022/07/02 04:32:36;;;;;;;14.43;8.70;;;24.20;99.90;;;;;;4786168;30;20435;-83
2022/07/02 04:35:04;;;;;;;14.75;10.35;;;24.30;99.90;;;;;;4794453;29;20439;-81
2022/07/02 04:37:31;;;;;;;15.85;8.80;;;24.20;99.90;;;;;;4802446;29;20050;-80
2022/07/02 04:39:59;;;;;;;14.38;8.27;;;24.10;99.90;;;;;;4782687;29;20039;-78
2022/07/02 04:42:26;;;;;;;14.52;8.90;;;24.10;99.90;;;;;;4780635;29;20415;-78
2022/07/02 04:44:54;;;;;;;12.20;8.00;;;24.10;99.90;;;;;;4799448;29;20066;-79
2022/07/02 04:47:21;;;;;;;72.07;46.75;;;24.20;99.90;;;;;;4787590;30;20047;-83
2022/07/02 04:49:49;;;;;;;103.03;72.45;;;24.30;99.90;;;;;;4787076;29;20438;-81
2022/07/02 04:52:17;;;;;;;92.63;67.82;;;24.40;99.90;;;;;;4787175;29;20474;-78
2022/07/02 04:54:44;;;;;;;172.05;117.25;;;24.40;99.90;;;;;;4787216;29;20043;-77
2022/07/02 04:57:12;;;;;;;25.77;17.77;;;24.40;99.90;;;;;;4786929;29;20055;-82
2022/07/02 04:59:39;;;;;;;150.48;104.47;;;24.20;99.90;;;;;;4785733;29;20055;-83
2022/07/02 05:02:07;;;;;;;81.10;57.97;;;24.20;99.90;;;;;;4786943;29;20044;-79
2022/07/02 05:04:34;;;;;;;34.60;26.02;;;24.30;99.90;;;;;;4787016;30;20048;-80
2022/07/02 05:07:02;;;;;;;21.55;13.15;;;24.60;99.90;;;;;;4786754;30;20055;-86
2022/07/02 05:09:29;;;;;;;17.55;11.38;;;24.60;99.90;;;;;;4786290;29;20474;-84
2022/07/02 05:11:56;;;;;;;23.25;12.68;;;24.50;99.90;;;;;;4788231;29;20519;-83
2022/07/02 05:14:26;;;;;;;14.55;9.77;;;24.50;99.90;;;;;;4803819;29;20054;-81
2022/07/02 05:16:54;;;;;;;18.45;10.55;;;24.50;99.90;;;;;;4804682;29;20050;-87
2022/07/02 05:19:24;;;;;;;16.00;10.20;;;24.30;99.90;;;;;;4788898;29;20389;-90
2022/07/02 05:21:51;;;;;;;16.33;9.65;;;24.50;99.90;;;;;;4804964;29;20115;-79
2022/07/02 05:24:19;;;;;;;18.92;9.70;;;24.50;99.90;;;;;;4804282;29;20523;-80
2022/07/02 05:26:46;;;;;;;13.65;8.98;;;24.40;99.90;;;;;;4804541;29;20051;-84
2022/07/02 05:29:14;;;;;;;20.85;10.20;;;24.60;99.90;;;;;;4803276;29;20051;-81
2022/07/02 05:31:41;;;;;;;21.77;11.63;;;24.50;99.90;;;;;;4804396;29;20042;-82
2022/07/02 05:34:09;;;;;;;18.17;11.02;;;24.80;99.90;;;;;;4803006;29;20050;-81
2022/07/02 05:36:36;;;;;;;18.15;9.68;;;24.90;99.90;;;;;;4786592;29;20043;-81
2022/07/02 05:39:03;;;;;;;17.10;9.38;;;24.90;99.90;;;;;;4801222;29;20062;-82
2022/07/02 05:41:31;;;;;;;12.68;9.07;;;24.80;99.90;;;;;;4801734;29;20043;-82
2022/07/02 05:43:59;;;;;;;16.15;9.05;;;25.00;99.90;;;;;;4786708;29;20141;-83
2022/07/02 05:46:27;;;;;;;20.45;8.82;;;25.00;99.90;;;;;;4784764;30;20047;-81
2022/07/02 05:48:54;;;;;;;16.38;9.85;;;25.10;99.90;;;;;;4785205;30;20047;-82
2022/07/02 05:51:21;;;;;;;14.70;9.18;;;25.00;99.90;;;;;;4786554;30;20055;-83
2022/07/02 05:53:49;;;;;;;20.48;10.23;;;25.00;99.90;;;;;;4786388;30;20039;-82
2022/07/02 05:56:17;;;;;;;16.88;8.95;;;24.80;99.90;;;;;;4786229;30;20047;-83
2022/07/02 05:58:44;;;;;;;15.40;8.82;;;24.90;99.90;;;;;;4770346;30;20047;-79
2022/07/02 06:01:13;;;;;;;13.50;8.35;;;24.90;99.90;;;;;;4786221;30;20381;-81
2022/07/02 06:03:41;;;;;;;21.33;9.90;;;24.70;99.90;;;;;;4786443;30;20051;-80
2022/07/02 06:10:07;;;;;;;17.00;8.35;;;24.80;99.90;;;;;;4786129;30;20139;-81
2022/07/02 06:12:35;;;;;;;25.85;14.02;;;24.90;99.90;;;;;;4786592;30;20051;-82
2022/07/02 06:15:03;;;;;;;14.95;10.18;;;25.10;99.90;;;;;;4789678;30;20039;-79
2022/07/02 06:17:31;;;;;;;86.05;53.67;;;25.30;99.90;;;;;;4788613;29;20058;-79
2022/07/02 06:19:58;;;;;;;25.73;14.88;;;25.40;99.90;;;;;;4789647;30;20040;-83
2022/07/02 06:22:51;;;;;;;176.55;125.05;;;25.60;99.90;;;;;;4789918;30;20054;-81
2022/07/02 06:25:31;;;;;;;45.63;35.65;;;25.80;99.90;;;;;;4773592;30;20051;-85
2022/07/02 06:27:59;;;;;;;15.30;10.05;;;25.90;99.90;;;;;;4788246;30;20471;-81
2022/07/02 06:30:28;;;;;;;23.98;9.65;;;25.80;99.90;;;;;;4789082;30;20053;-83
2022/07/02 06:32:56;;;;;;;17.38;9.15;;;25.90;99.90;;;;;;4789212;30;20075;-79
2022/07/02 06:35:25;;;;;;;16.27;9.68;;;25.90;99.90;;;;;;4788930;30;20058;-87
2022/07/02 06:37:53;;;;;;;19.75;12.05;;;26.00;99.90;;;;;;4804205;29;20043;-78
2022/07/02 06:40:21;;;;;;;43.17;32.78;;;26.30;99.90;;;;;;4805032;29;20063;-80
2022/07/02 06:42:48;;;;;;;40.47;31.73;;;26.30;99.90;;;;;;4803331;29;20039;-79
2022/07/02 06:45:16;;;;;;;21.33;14.10;;;26.20;99.90;;;;;;4788281;29;20051;-78
2022/07/02 06:47:44;;;;;;;21.73;11.48;;;26.20;99.90;;;;;;4805896;29;20039;-80
2022/07/02 06:50:12;;;;;;;25.88;16.25;;;26.10;99.90;;;;;;4805497;29;20055;-82
2022/07/02 06:52:44;;;;;;;36.45;26.02;;;25.80;99.90;;;;;;4806306;29;20046;-82
2022/07/02 06:55:12;;;;;;;19.60;11.20;;;25.80;99.90;;;;;;4797909;29;20046;-91
2022/07/02 06:57:40;;;;;;;23.23;12.30;;;25.70;99.90;;;;;;4807645;29;20404;-90
2022/07/02 07:00:08;;;;;;;19.30;13.07;;;25.90;99.90;;;;;;4807479;29;20057;-81
2022/07/02 07:02:35;;;;;;;18.45;11.15;;;26.10;99.90;;;;;;4799127;29;20044;-80
2022/07/02 07:05:03;;;;;;;17.38;10.68;;;26.30;99.90;;;;;;4788776;29;20450;-79
2022/07/02 07:07:31;;;;;;;17.45;10.93;;;26.30;99.90;;;;;;4806484;29;20434;-83
2022/07/02 07:09:59;;;;;;;15.43;9.85;;;26.40;99.90;;;;;;4790570;29;20707;-82
2022/07/02 07:12:27;;;;;;;16.17;10.40;;;26.50;99.90;;;;;;4807177;29;20050;-86
2022/07/02 07:14:56;;;;;;;16.90;9.85;;;26.50;99.90;;;;;;4806503;29;20063;-83
2022/07/02 07:17:27;;;;;;;15.68;10.18;;;26.50;99.90;;;;;;4790396;29;20053;-80
2022/07/02 07:19:54;;;;;;;20.08;10.52;;;26.70;99.90;;;;;;4789914;29;20066;-81
2022/07/02 07:22:23;;;;;;;19.63;10.50;;;26.70;99.90;;;;;;4805395;29;20051;-84
2022/07/02 07:24:51;;;;;;;22.83;10.95;;;26.80;99.90;;;;;;4804654;29;20494;-84
2022/07/02 07:27:21;;;;;;;36.67;13.88;;;26.90;99.90;;;;;;4805267;29;20050;-85
2022/07/02 07:29:49;;;;;;;29.63;14.35;;;27.00;99.90;;;;;;4804504;29;20043;-80
2022/07/02 07:32:16;;;;;;;21.15;12.27;;;27.10;99.90;;;;;;4789116;29;20506;-88
2022/07/02 07:34:44;;;;;;;27.30;15.45;;;27.10;99.90;;;;;;4805400;29;20419;-82
2022/07/02 07:37:13;;;;;;;22.45;12.93;;;27.10;99.90;;;;;;4806929;29;20070;-85
2022/07/02 07:39:40;;;;;;;28.23;12.52;;;27.20;99.90;;;;;;4788793;29;20081;-83
2022/07/02 07:42:08;;;;;;;18.40;10.85;;;27.20;99.90;;;;;;4789881;29;20050;-82
2022/07/02 07:44:35;;;;;;;15.55;9.90;;;27.30;99.90;;;;;;4788182;29;20042;-80
2022/07/02 07:47:03;;;;;;;18.00;10.75;;;27.40;99.90;;;;;;4787816;30;20070;-82
2022/07/02 07:49:31;;;;;;;18.20;9.90;;;27.40;99.90;;;;;;4788057;30;20071;-84
2022/07/02 07:51:58;;;;;;;20.52;10.57;;;27.40;99.90;;;;;;4788194;30;20043;-80
2022/07/02 07:54:26;;;;;;;18.63;10.27;;;27.40;99.90;;;;;;4788540;30;20048;-89
2022/07/02 07:56:59;;;;;;;17.40;9.70;;;27.40;99.90;;;;;;4787229;30;20449;-82
2022/07/02 07:59:26;;;;;;;16.38;9.93;;;27.40;99.90;;;;;;4787157;30;20047;-83
2022/07/02 08:01:54;;;;;;;18.05;9.68;;;27.60;99.90;;;;;;4788561;30;20051;-87
2022/07/02 08:04:21;;;;;;;18.40;10.70;;;27.60;99.90;;;;;;4788038;30;20163;-83
2022/07/02 08:06:49;;;;;;;19.58;10.48;;;27.70;99.90;;;;;;4772199;30;20400;-89
2022/07/02 08:09:17;;;;;;;19.05;10.88;;;27.80;99.80;;;;;;4772070;30;20059;-81
2022/07/02 08:11:44;;;;;;;15.23;9.70;;;27.80;99.70;;;;;;4788134;30;20051;-82
2022/07/02 08:14:11;;;;;;;16.73;9.95;;;27.90;99.30;;;;;;4771315;30;20059;-86
2022/07/02 08:16:39;;;;;;;16.70;9.65;;;27.90;99.20;;;;;;4787770;30;20397;-83
2022/07/02 08:19:06;;;;;;;16.95;9.57;;;28.00;98.90;;;;;;4787545;30;20054;-84
2022/07/02 08:21:34;;;;;;;17.02;10.30;;;28.00;98.80;;;;;;4780351;30;20061;-86
2022/07/02 08:24:01;;;;;;;18.48;11.02;;;28.00;98.80;;;;;;4787707;29;20054;-81
2022/07/02 08:26:29;;;;;;;15.80;9.52;;;28.10;98.80;;;;;;4787706;29;20051;-85
2022/07/02 08:29:02;;;;;;;20.38;10.05;;;28.10;98.20;;;;;;4800570;29;20058;-88
2022/07/02 08:31:29;;;;;;;15.93;9.57;;;28.10;98.00;;;;;;4786547;30;20062;-84
2022/07/02 08:33:57;;;;;;;17.77;10.30;;;28.30;97.80;;;;;;4787125;29;20048;-84
2022/07/02 08:36:26;;;;;;;15.48;9.60;;;28.40;97.60;;;;;;4785816;29;20059;-82
2022/07/02 08:38:53;;;;;;;17.90;10.40;;;28.30;97.30;;;;;;4785894;30;20043;-83
2022/07/02 08:41:21;;;;;;;20.27;10.25;;;28.40;97.30;;;;;;4787316;29;20130;-82
2022/07/02 08:43:53;;;;;;;21.63;10.73;;;28.50;97.60;;;;;;4786990;29;20430;-85
2022/07/02 08:46:24;;;;;;;15.15;10.40;;;28.50;97.50;;;;;;4787292;29;20047;-82
2022/07/02 08:48:53;;;;;;;17.23;10.30;;;28.50;97.30;;;;;;4786404;29;20200;-84
2022/07/02 08:51:21;;;;;;;16.17;9.75;;;28.50;96.70;;;;;;4787028;30;20424;-81
2022/07/02 08:53:49;;;;;;;13.00;9.13;;;28.60;97.20;;;;;;4786708;29;20055;-81
2022/07/02 08:56:17;;;;;;;15.18;10.27;;;28.70;96.90;;;;;;4801344;29;20063;-81
2022/07/02 08:58:45;;;;;;;18.17;10.35;;;28.70;96.60;;;;;;4786896;30;20396;-81
2022/07/02 09:01:14;;;;;;;15.88;9.50;;;28.80;96.50;;;;;;4786747;29;20058;-80
2022/07/02 09:03:43;;;;;;;16.27;9.60;;;29.00;96.00;;;;;;4786979;29;20047;-84
2022/07/02 09:06:13;;;;;;;18.63;10.65;;;29.10;95.70;;;;;;4800519;29;20059;-82
2022/07/02 09:08:43;;;;;;;16.58;10.50;;;29.20;95.60;;;;;;4785736;30;20102;-83
2022/07/02 09:11:11;;;;;;;15.63;9.02;;;29.30;94.90;;;;;;4786747;30;20065;-83
2022/07/02 09:13:40;;;;;;;16.08;9.45;;;29.00;94.60;;;;;;4785418;30;20047;-82
2022/07/02 09:16:07;;;;;;;15.73;9.77;;;29.10;94.60;;;;;;4785634;30;20073;-83
2022/07/02 09:18:35;;;;;;;15.63;9.27;;;29.10;94.10;;;;;;4785698;30;20039;-83
2022/07/02 09:21:09;;;;;;;13.80;9.13;;;29.00;94.40;;;;;;4786787;29;20047;-84
2022/07/02 09:23:48;;;;;;;17.77;8.85;;;29.30;94.50;;;;;;4770945;30;20051;-83
2022/07/02 09:26:23;;;;;;;16.10;9.75;;;29.50;93.90;;;;;;4786554;30;20047;-85
2022/07/02 09:29:03;;;;;;;14.52;9.23;;;29.80;94.30;;;;;;4786800;30;20424;-84
2022/07/02 09:31:32;;;;;;;14.05;8.10;;;30.00;94.00;;;;;;4786804;30;20039;-82
2022/07/02 09:33:59;;;;;;;16.88;9.80;;;30.00;94.00;;;;;;4787024;30;20123;-88
2022/07/02 09:36:27;;;;;;;14.80;9.15;;;29.90;93.80;;;;;;4786442;30;20135;-82
2022/07/02 09:38:55;;;;;;;16.55;9.10;;;30.00;93.10;;;;;;4786619;30;20412;-83
2022/07/02 09:41:23;;;;;;;12.40;8.80;;;30.10;93.00;;;;;;4786409;30;20460;-83
2022/07/02 09:43:58;;;;;;;14.07;7.50;;;30.20;92.80;;;;;;4786365;30;20396;-83
2022/07/02 09:46:26;;;;;;;16.73;9.30;;;30.30;92.20;;;;;;4757522;30;20047;-83
2022/07/02 09:48:54;;;;;;;11.05;6.95;;;29.90;91.90;;;;;;4770292;30;20401;-86
2022/07/02 09:51:22;;;;;;;12.77;7.60;;;29.90;90.20;;;;;;4772047;30;20450;-84
2022/07/02 09:53:55;;;;;;;18.05;7.88;;;30.20;90.40;;;;;;4771650;30;20152;-83
2022/07/02 09:56:24;;;;;;;12.30;7.63;;;30.20;90.70;;;;;;4771981;30;20488;-83
2022/07/02 09:58:51;;;;;;;15.23;7.70;;;30.30;90.60;;;;;;4772373;30;20040;-88
2022/07/02 10:01:27;;;;;;;10.82;7.80;;;30.40;90.60;;;;;;4772100;30;20058;-84
2022/07/02 10:03:56;;;;;;;20.17;18.42;;;30.60;90.50;;;;;;4770995;30;20067;-82
2022/07/02 10:06:25;;;;;;;13.43;7.57;;;31.00;90.20;;;;;;4785777;30;20052;-82
2022/07/02 10:08:55;;;;;;;103.70;96.55;;;31.20;87.90;;;;;;4771682;30;20074;-80
2022/07/02 10:11:32;;;;;;;;;;;31.30;88.70;;;;;;4771156;30;20405;-87
2022/07/02 10:14:18;;;;;;;422.98;391.63;;;31.20;87.50;;;;;;4770587;29;19965;-82
2022/07/02 10:16:51;;;;;;;680.13;633.53;;;31.00;87.10;;;;;;4771995;30;20481;-80
2022/07/02 10:19:20;;;;;;;715.42;667.72;;;31.10;86.70;;;;;;4771530;30;20051;-82
2022/07/02 10:21:51;;;;;;;712.90;670.53;;;31.10;85.90;;;;;;4799359;29;20058;-82
2022/07/02 10:24:25;;;;;;;289.83;268.70;;;31.00;86.20;;;;;;4807584;29;20074;-84
2022/07/02 10:26:55;;;;;;;627.77;582.83;;;31.20;86.90;;;;;;4807295;29;20062;-83
2022/07/02 10:29:26;;;;;;;180.10;162.18;;;31.50;85.10;;;;;;4807148;29;20053;-82
2022/07/02 10:32:31;;;;;;;190.85;172.85;;;31.60;83.80;;;;;;4807691;29;20057;-82
2022/07/02 10:35:14;;;;;;;331.13;301.58;;;31.70;84.30;;;;;;4807458;29;20050;-81
2022/07/02 10:37:43;;;;;;;353.55;320.40;;;31.70;83.10;;;;;;4805170;29;20054;-81
2022/07/02 10:40:16;;;;;;;15.00;7.53;;;31.90;83.30;;;;;;4807448;29;20055;-80
2022/07/02 10:42:49;;;;;;;13.77;6.95;;;32.10;82.00;;;;;;4790651;29;20047;-83
2022/07/02 10:45:22;;;;;;;223.15;183.35;;;32.00;81.50;;;;;;4805279;29;20058;-78
2022/07/02 10:48:02;;;;;;;297.80;274.65;;;32.20;82.30;;;;;;4788946;30;20088;-79
2022/07/02 10:50:39;;;;;;;665.70;620.45;;;32.20;81.30;;;;;;4788137;30;20044;-79
2022/07/02 10:53:14;;;;;;;12.40;6.38;;;32.30;80.50;;;;;;4772871;30;20546;-82
2022/07/02 10:55:59;;;;;;;9.82;6.18;;;32.40;81.00;;;;;;4772690;30;20538;-83
2022/07/02 10:58:32;;;;;;;9.48;6.38;;;32.50;79.20;;;;;;4789238;30;20059;-82
2022/07/02 11:01:10;;;;;;;12.85;6.53;;;32.50;78.70;;;;;;4789483;30;20076;-84
2022/07/02 11:03:38;;;;;;;12.90;6.15;;;32.50;77.20;;;;;;4789427;30;20077;-83
2022/07/02 11:06:19;;;;;;;9.88;6.28;;;32.50;76.80;;;;;;4789283;30;20544;-82
2022/07/02 11:08:50;;;;;;;11.15;5.97;;;32.70;75.60;;;;;;4789014;30;20043;-78
2022/07/02 11:11:29;;;;;;;10.45;6.40;;;32.80;75.10;;;;;;4789263;30;20051;-79
2022/07/02 11:14:20;;;;;;;10.07;6.13;;;32.90;73.80;;;;;;4789264;30;20067;-78
2022/07/02 11:16:49;;;;;;;10.35;5.10;;;33.00;73.30;;;;;;4786062;30;20059;-81
2022/07/02 11:19:22;;;;;;;245.88;227.50;;;33.10;73.10;;;;;;4789354;30;20075;-81
2022/07/02 11:21:53;;;;;;;694.95;650.67;;;33.00;73.10;;;;;;4788909;30;20055;-82
2022/07/02 11:24:28;;;;;;;680.13;634.10;;;33.00;73.00;;;;;;4788804;30;20067;-82
2022/07/02 11:26:56;;;;;;;17.27;8.80;;;33.20;72.50;;;;;;4788712;30;20047;-82
2022/07/02 11:29:23;;;;;;;13.13;7.15;;;33.20;72.20;;;;;;4789511;30;20058;-82
2022/07/02 11:31:53;;;;;;;715.50;669.15;;;33.40;73.10;;;;;;4787944;30;20047;-80
2022/07/02 11:34:21;;;;;;;;;;;33.40;72.00;;;;;;4787455;30;20082;-83
2022/07/02 11:36:50;;;;;;;590.95;548.00;;;33.50;72.30;;;;;;4786511;30;20386;-80
2022/07/02 11:39:19;;;;;;;722.65;672.85;;;33.70;71.70;;;;;;4770197;30;20036;-79
2022/07/02 11:41:47;;;;;;;872.45;815.33;;;32.90;71.70;;;;;;4770166;30;20409;-78
2022/07/02 11:44:20;;;;;;;540.15;508.77;;;32.90;72.10;;;;;;4769975;30;20203;-82
2022/07/02 11:46:56;;;;;;;35.45;25.13;;;33.40;72.90;;;;;;4768133;30;20043;-76
2022/07/02 11:49:30;;;;;;;299.15;279.05;;;33.30;69.60;;;;;;4768760;30;20057;-76
2022/07/02 11:51:58;;;;;;;899.85;844.58;;;33.30;69.40;;;;;;4770195;30;20048;-77
2022/07/02 11:54:26;;;;;;;867.47;814.67;;;33.40;71.40;;;;;;4769958;30;20447;-77
2022/07/02 11:56:54;;;;;;;846.45;794.55;;;33.50;69.80;;;;;;4769014;30;20055;-77
2022/07/02 11:59:24;;;;;;;731.10;682.70;;;33.50;71.40;;;;;;4769192;30;20424;-76
2022/07/02 12:01:53;;;;;;;815.65;764.72;;;33.70;71.30;;;;;;4769864;29;20524;-78
2022/07/02 12:04:22;;;;;;;887.05;832.05;;;33.70;66.70;;;;;;4769766;30;20066;-77
2022/07/02 12:06:53;;;;;;;12.83;6.90;;;33.50;66.70;;;;;;4769995;30;20048;-77
2022/07/02 12:09:22;;;;;;;121.10;109.75;;;33.40;66.80;;;;;;4769299;30;20058;-76
2022/07/02 12:11:54;;;;;;;224.10;204.23;;;33.10;63.40;;;;;;4768710;30;20135;-75
2022/07/02 12:14:29;;;;;;;136.75;124.10;;;32.90;66.90;;;;;;4769251;30;20051;-77
2022/07/02 12:16:58;;;;;;;9.40;7.22;;;33.60;69.00;;;;;;4769483;30;20071;-77
2022/07/02 12:19:31;;;;;;;229.85;210.27;;;34.00;67.30;;;;;;4769443;30;20101;-77
2022/07/02 12:21:58;;;;;;;139.30;127.68;;;34.40;67.70;;;;;;4783895;29;20055;-75
2022/07/02 12:24:30;;;;;;;105.43;92.88;;;34.50;65.60;;;;;;4787116;30;20054;-77
2022/07/02 12:26:59;;;;;;;9.30;5.20;;;34.30;64.70;;;;;;4786837;30;20561;-74
2022/07/02 12:32:28;;;;;;;12.45;5.55;;;34.30;64.50;;;;;;4786973;30;20047;-80
2022/07/02 12:34:57;;;;;;;10.63;6.53;;;34.30;64.70;;;;;;4786740;30;20392;-77
2022/07/02 12:37:39;;;;;;;43.13;30.80;;;34.50;64.50;;;;;;4786824;30;20055;-75
2022/07/02 12:40:18;;;;;;;39.72;30.77;;;34.60;64.10;;;;;;4787457;30;20492;-80
2022/07/02 12:42:57;;;;;;;17.30;12.25;;;34.60;64.00;;;;;;4787785;30;20052;-80
2022/07/02 12:45:38;;;;;;;13.17;9.63;;;34.60;62.40;;;;;;4771845;30;20055;-79
2022/07/02 12:48:07;;;;;;;22.75;16.58;;;34.40;62.40;;;;;;4774068;29;20127;-78
2022/07/02 12:50:40;;;;;;;24.77;20.90;;;34.10;62.40;;;;;;4769698;30;20404;-78